createdAt,value
2023-04-25T00:01:41.659Z,4.00
2023-04-25T00:04:30.867Z,3.92
2023-04-25T00:07:18.690Z,3.08
2023-04-25T00:10:08.033Z,3.67
2023-04-25T00:12:58.577Z,4.60
2023-04-25T00:15:49.109Z,5.32
2023-04-25T00:18:37.433Z,2.80
2023-04-25T00:21:25.416Z,3.13
2023-04-25T00:24:13.002Z,3.35
2023-04-25T00:27:00.689Z,3.15
2023-04-25T00:29:50.376Z,4.22
2023-04-25T00:32:38.835Z,3.17
2023-04-25T00:35:26.582Z,2.70
2023-04-25T00:38:14.076Z,3.20
2023-04-25T00:41:01.734Z,2.80
2023-04-25T00:43:51.212Z,2.75
2023-04-25T00:46:41.664Z,2.40
2023-04-25T00:49:29.381Z,3.03
2023-04-25T00:52:17.065Z,3.80
2023-04-25T00:55:06.124Z,2.95
2023-04-25T00:57:54.312Z,3.25
2023-04-25T01:00:42.985Z,2.75
2023-04-25T01:03:36.568Z,2.38
2023-04-25T01:06:24.478Z,3.13
2023-04-25T01:09:12.415Z,2.85
2023-04-25T01:12:01.109Z,2.88
2023-04-25T01:14:52.693Z,3.10
2023-04-25T01:17:44.952Z,3.25
2023-04-25T01:20:35.596Z,2.40
2023-04-25T01:23:25.081Z,3.10
2023-04-25T01:26:14.277Z,3.70
2023-04-25T01:29:02.764Z,3.30
2023-04-25T01:31:50.899Z,2.90
2023-04-25T01:34:38.846Z,2.70
2023-04-25T01:37:26.791Z,2.83
2023-04-25T01:40:16.272Z,2.92
2023-04-25T01:43:04.018Z,2.97
2023-04-25T01:45:53.556Z,2.80
2023-04-25T01:48:41.414Z,2.55
2023-04-25T01:51:29.266Z,2.70
2023-04-25T01:54:16.810Z,2.33
2023-04-25T01:57:05.893Z,2.50
2023-04-25T01:59:55.832Z,2.72
2023-04-25T02:02:43.457Z,2.50
2023-04-25T02:05:37.726Z,3.03
2023-04-25T02:08:26.931Z,3.13
2023-04-25T02:11:14.703Z,2.45
2023-04-25T02:14:03.770Z,2.60
2023-04-25T02:16:52.293Z,3.88
2023-04-25T02:19:40.480Z,2.67
2023-04-25T02:22:31.117Z,2.55
2023-04-25T02:25:19.075Z,4.13
2023-04-25T02:28:06.466Z,4.40
2023-04-25T02:30:55.518Z,3.03
2023-04-25T02:33:43.190Z,4.10
2023-04-25T02:36:33.200Z,4.32
2023-04-25T02:39:23.032Z,3.30
2023-04-25T02:42:10.556Z,4.20
2023-04-25T02:45:00.417Z,6.63
2023-04-25T02:47:49.681Z,5.03
2023-04-25T02:50:37.541Z,3.45
2023-04-25T02:53:25.155Z,4.38
2023-04-25T02:56:12.612Z,3.30
2023-04-25T02:59:02.670Z,3.88
2023-04-25T03:01:50.453Z,3.17
2023-04-25T03:04:39.647Z,3.85
2023-04-25T03:07:27.645Z,3.38
2023-04-25T03:10:15.213Z,3.92
2023-04-25T03:13:03.097Z,4.65
2023-04-25T03:15:50.413Z,4.05
2023-04-25T03:18:37.903Z,3.88
2023-04-25T03:21:27.425Z,3.92
2023-04-25T03:24:14.923Z,2.40
2023-04-25T03:27:02.483Z,2.50
2023-04-25T03:29:50.198Z,2.80
2023-04-25T03:32:37.796Z,2.95
2023-04-25T03:35:26.158Z,4.50
2023-04-25T03:38:15.346Z,2.60
2023-04-25T03:41:05.957Z,3.47
2023-04-25T03:43:53.676Z,4.68
2023-04-25T03:46:41.279Z,5.25
2023-04-25T03:49:28.983Z,4.00
2023-04-25T03:52:16.717Z,4.85
2023-04-25T03:55:07.050Z,4.35
2023-04-25T03:57:54.548Z,3.53
2023-04-25T04:00:42.410Z,2.78
2023-04-25T04:03:30.041Z,3.80
2023-04-25T04:06:17.677Z,4.10
2023-04-25T04:09:05.542Z,4.07
2023-04-25T04:11:54.577Z,3.13
2023-04-25T04:14:43.057Z,3.60
2023-04-25T04:17:30.976Z,3.42
2023-04-25T04:20:18.984Z,3.80
2023-04-25T04:23:06.599Z,6.63
2023-04-25T04:25:54.979Z,5.65
2023-04-25T04:28:45.209Z,4.20
2023-04-25T04:31:33.671Z,6.43
2023-04-25T04:34:21.702Z,5.82
2023-04-25T04:37:10.670Z,4.38
2023-04-25T04:39:58.976Z,6.55
2023-04-25T04:42:47.466Z,4.68
2023-04-25T04:45:37.558Z,3.80
2023-04-25T04:48:25.658Z,3.30
2023-04-25T04:51:13.297Z,4.10
2023-04-25T04:54:03.451Z,6.82
2023-04-25T04:56:51.277Z,4.22
2023-04-25T04:59:38.920Z,5.28
2023-04-25T05:02:28.360Z,3.83
2023-04-25T05:05:16.372Z,4.53
2023-04-25T05:08:03.864Z,5.15
2023-04-25T05:10:54.463Z,4.43
2023-04-25T05:13:43.180Z,4.78
2023-04-25T05:16:30.942Z,3.47
2023-04-25T05:19:19.864Z,4.40
2023-04-25T05:22:07.617Z,3.38
2023-04-25T05:24:56.150Z,3.22
2023-04-25T05:27:43.984Z,5.15
2023-04-25T05:30:31.562Z,3.40
2023-04-25T05:33:19.340Z,3.20
2023-04-25T05:36:10.164Z,3.10
2023-04-25T05:38:58.248Z,2.95
2023-04-25T05:41:46.296Z,2.75
2023-04-25T05:44:34.090Z,3.28
2023-04-25T05:47:21.753Z,3.55
2023-04-25T05:50:10.876Z,5.72
2023-04-25T05:52:59.917Z,3.47
2023-04-25T05:55:48.656Z,4.68
2023-04-25T05:58:36.124Z,3.45
2023-04-25T06:01:24.832Z,5.00
2023-04-25T06:04:13.105Z,5.03
2023-04-25T06:07:01.325Z,4.45
2023-04-25T06:09:50.213Z,5.05
2023-04-25T06:12:38.130Z,5.75
2023-04-25T06:15:28.835Z,4.68
2023-04-25T06:18:16.870Z,4.88
2023-04-25T06:21:04.875Z,4.63
2023-04-25T06:23:52.780Z,5.65
2023-04-25T06:26:41.939Z,5.03
2023-04-25T06:29:29.398Z,4.40
2023-04-25T06:32:18.969Z,4.50
2023-04-25T06:35:08.161Z,4.10
2023-04-25T06:37:55.759Z,4.03
2023-04-25T06:40:43.097Z,5.40
2023-04-25T06:43:34.150Z,4.78
2023-04-25T06:46:22.035Z,6.03
2023-04-25T06:49:09.570Z,4.45
2023-04-25T06:51:56.974Z,5.25
2023-04-25T06:54:44.532Z,4.38
2023-04-25T06:57:32.044Z,4.15
2023-04-25T07:00:23.926Z,5.13
2023-04-25T07:03:11.749Z,8.80
2023-04-25T07:05:59.580Z,5.45
2023-04-25T07:08:47.082Z,4.45
2023-04-25T07:11:34.841Z,5.28
2023-04-25T07:14:23.635Z,3.13
2023-04-25T07:17:13.221Z,3.38
2023-04-25T07:20:00.950Z,3.35
2023-04-25T07:22:48.612Z,4.28
2023-04-25T07:25:36.258Z,4.55
2023-04-25T07:28:23.647Z,3.85
2023-04-25T07:31:11.586Z,2.80
2023-04-25T07:34:02.025Z,3.97
2023-04-25T07:36:50.297Z,4.43
2023-04-25T07:39:38.448Z,2.53
2023-04-25T07:42:28.520Z,2.78
2023-04-25T07:45:16.385Z,3.53
2023-04-25T07:48:04.564Z,2.58
2023-04-25T07:50:53.918Z,2.88
2023-04-25T07:53:41.912Z,6.80
2023-04-25T07:56:33.551Z,4.10
2023-04-25T07:59:29.321Z,3.63
2023-04-25T08:02:17.541Z,4.55
2023-04-25T08:05:06.444Z,3.42
2023-04-25T08:07:55.780Z,4.55
2023-04-25T08:10:47.083Z,3.40
2023-04-25T08:13:34.624Z,3.67
2023-04-25T08:16:22.529Z,4.07
2023-04-25T08:19:09.994Z,3.53
2023-04-25T08:21:57.656Z,8.43
2023-04-25T08:24:46.900Z,4.97
2023-04-25T08:27:34.637Z,3.28
2023-04-25T08:30:22.824Z,3.22
2023-04-25T08:33:11.304Z,3.03
2023-04-25T08:36:00.425Z,5.18
2023-04-25T08:38:48.513Z,7.25
2023-04-25T08:41:39.198Z,4.32
2023-04-25T08:44:28.116Z,3.60
2023-04-25T08:47:15.890Z,5.05
2023-04-25T08:50:08.564Z,3.97
2023-04-25T08:53:00.550Z,7.20
2023-04-25T08:55:49.027Z,4.05
2023-04-25T08:58:39.284Z,6.70
2023-04-25T09:01:27.678Z,5.95
2023-04-25T09:04:18.994Z,5.65
2023-04-25T09:07:06.523Z,4.97
2023-04-25T09:09:54.366Z,5.13
2023-04-25T09:12:42.156Z,4.78
2023-04-25T09:15:31.073Z,5.53
2023-04-25T09:18:29.915Z,7.88
2023-04-25T09:21:17.728Z,7.43
2023-04-25T09:24:06.410Z,9.18
2023-04-25T09:26:54.076Z,6.15
2023-04-25T09:29:43.315Z,5.68
2023-04-25T09:32:32.665Z,5.57
2023-04-25T09:35:27.598Z,7.88
2023-04-25T09:38:19.196Z,8.23
2023-04-25T09:41:12.689Z,5.55
2023-04-25T09:44:26.390Z,5.80
2023-04-25T09:47:40.718Z,5.47
2023-04-25T09:50:28.322Z,3.80
2023-04-25T09:53:15.930Z,3.03
2023-04-25T09:56:08.439Z,4.82
2023-04-25T09:58:57.023Z,5.72
2023-04-25T10:01:46.179Z,4.38
2023-04-25T10:04:37.936Z,4.40
2023-04-25T10:07:31.191Z,5.00
2023-04-25T10:10:20.885Z,5.30
2023-04-25T10:13:09.213Z,4.10
2023-04-25T10:15:59.030Z,2.92
2023-04-25T10:18:46.807Z,4.97
2023-04-25T10:21:38.897Z,5.05
2023-04-25T10:24:28.644Z,3.25
2023-04-25T10:27:16.828Z,4.35
2023-04-25T10:30:06.213Z,2.72
2023-04-25T10:32:58.020Z,3.53
2023-04-25T10:35:47.942Z,3.88
2023-04-25T10:38:38.770Z,3.00
2023-04-25T10:41:26.748Z,2.20
2023-04-25T10:44:16.373Z,3.53
2023-04-25T10:47:06.777Z,1.90
2023-04-25T10:49:54.384Z,2.20
2023-04-25T10:52:42.049Z,1.95
2023-04-25T10:55:53.737Z,1.70
2023-04-25T10:58:45.846Z,2.33
2023-04-25T11:04:30.703Z,2.22
2023-04-25T11:07:30.980Z,1.70
2023-04-25T11:10:18.622Z,2.28
2023-04-25T11:13:07.663Z,2.33
2023-04-25T11:16:07.088Z,3.50
2023-04-25T11:19:01.250Z,3.67
2023-04-25T11:21:48.954Z,4.82
2023-04-25T11:24:37.973Z,2.88
2023-04-25T11:27:26.772Z,2.28
2023-04-25T11:30:17.981Z,2.72
2023-04-25T11:33:05.840Z,2.90
2023-04-25T11:35:56.865Z,2.80
2023-04-25T11:38:44.424Z,2.47
2023-04-25T11:41:33.440Z,2.67
2023-04-25T11:44:23.000Z,3.00
2023-04-25T11:47:12.146Z,3.35
2023-04-25T11:50:01.664Z,2.42
2023-04-25T11:52:51.345Z,2.13
2023-04-25T11:55:41.042Z,2.15
2023-04-25T11:58:28.884Z,2.30
2023-04-25T12:01:31.483Z,3.67
2023-04-25T12:04:24.544Z,2.75
2023-04-25T12:07:12.694Z,2.00
2023-04-25T12:10:00.913Z,1.90
2023-04-25T12:12:50.464Z,2.65
2023-04-25T12:15:42.772Z,2.50
2023-04-25T12:18:31.324Z,2.03
2023-04-25T12:21:22.387Z,3.45
2023-04-25T12:24:16.432Z,2.45
2023-04-25T12:27:06.032Z,2.28
2023-04-25T12:29:55.595Z,2.05
2023-04-25T12:32:43.451Z,2.30
2023-04-25T12:35:31.764Z,2.30
2023-04-25T12:38:30.292Z,1.75
2023-04-25T12:41:17.920Z,2.33
2023-04-25T12:44:05.880Z,2.75
2023-04-25T12:46:54.049Z,2.50
2023-04-25T12:49:42.252Z,2.83
2023-04-25T12:52:29.763Z,2.35
2023-04-25T12:55:18.940Z,2.75
2023-04-25T12:58:06.459Z,2.60
2023-04-25T13:00:54.163Z,3.03
2023-04-25T13:03:42.008Z,2.83
2023-04-25T13:06:30.985Z,4.38
2023-04-25T13:09:18.786Z,2.33
2023-04-25T13:12:08.513Z,3.70
2023-04-25T13:14:56.590Z,2.78
2023-04-25T13:17:44.936Z,3.38
2023-04-25T13:20:33.563Z,3.90
2023-04-25T13:23:22.219Z,2.70
2023-04-25T13:26:10.150Z,3.38
2023-04-25T13:28:59.271Z,2.72
2023-04-25T13:31:47.149Z,2.60
2023-04-25T13:34:34.916Z,5.07
2023-04-25T13:37:25.057Z,2.17
2023-04-25T13:40:13.849Z,2.75
2023-04-25T13:43:01.603Z,3.17
2023-04-25T13:45:50.951Z,3.70
2023-04-25T13:48:38.820Z,3.60
2023-04-25T13:51:27.452Z,3.83
2023-04-25T13:54:15.018Z,3.70
2023-04-25T13:57:03.106Z,2.60
2023-04-25T13:59:50.497Z,3.85
2023-04-25T14:02:40.069Z,3.58
2023-04-25T14:05:27.955Z,3.40
2023-04-25T14:08:15.709Z,2.17
2023-04-25T14:11:03.325Z,3.00
2023-04-25T14:13:50.976Z,3.05
2023-04-25T14:16:38.638Z,2.97
2023-04-25T14:19:27.402Z,3.30
2023-04-25T14:22:15.623Z,4.20
2023-04-25T14:25:03.560Z,3.30
2023-04-25T14:27:51.781Z,3.30
2023-04-25T14:30:39.403Z,2.78
2023-04-25T14:33:26.857Z,5.45
2023-04-25T14:36:16.353Z,4.47
2023-04-25T14:39:05.968Z,4.28
2023-04-25T14:41:53.743Z,2.30
2023-04-25T14:44:41.396Z,3.15
2023-04-25T14:47:28.863Z,3.55
2023-04-25T14:50:16.539Z,3.58
2023-04-25T14:53:05.428Z,3.25
2023-04-25T14:55:53.336Z,3.38
2023-04-25T14:58:42.405Z,7.82
2023-04-25T15:01:30.277Z,8.07
2023-04-25T15:04:18.595Z,6.70
2023-04-25T15:07:06.150Z,8.00
2023-04-25T15:09:56.896Z,7.15
2023-04-25T15:12:46.903Z,6.05
2023-04-25T15:15:35.700Z,4.10
2023-04-25T15:18:24.754Z,2.50
2023-04-25T15:21:12.480Z,2.67
2023-04-25T15:24:00.416Z,3.90
2023-04-25T15:26:49.183Z,5.32
2023-04-25T15:29:36.733Z,3.85
2023-04-25T15:32:24.667Z,4.75
2023-04-25T15:35:13.394Z,3.30
2023-04-25T15:38:00.967Z,4.57
2023-04-25T15:40:48.737Z,3.42
2023-04-25T15:43:38.784Z,3.80
2023-04-25T15:46:26.836Z,5.53
2023-04-25T15:49:14.646Z,4.90
2023-04-25T15:52:02.108Z,4.85
2023-04-25T15:54:49.945Z,5.25
2023-04-25T15:57:38.861Z,3.75
2023-04-25T16:00:28.317Z,4.80
2023-04-25T16:03:15.983Z,2.65
2023-04-25T16:06:04.579Z,3.53
2023-04-25T16:08:53.224Z,2.13
2023-04-25T16:11:40.975Z,4.35
2023-04-25T16:14:28.513Z,2.47
2023-04-25T16:17:18.149Z,5.72
2023-04-25T16:20:09.693Z,6.68
2023-04-25T16:22:57.155Z,4.05
2023-04-25T16:25:45.090Z,5.40
2023-04-25T16:28:32.951Z,5.47
2023-04-25T16:31:20.850Z,3.03
2023-04-25T16:34:10.053Z,3.55
2023-04-25T16:36:58.620Z,3.05
2023-04-25T16:39:47.435Z,2.55
2023-04-25T16:42:35.126Z,3.13
2023-04-25T16:45:24.370Z,3.70
2023-04-25T16:48:12.271Z,2.85
2023-04-25T16:51:01.962Z,3.33
2023-04-25T16:53:49.781Z,3.45
2023-04-25T16:56:37.306Z,4.45
2023-04-25T16:59:24.861Z,4.60
2023-04-25T17:02:14.471Z,3.97
2023-04-25T17:05:02.485Z,3.03
2023-04-25T17:07:52.161Z,4.68
2023-04-25T17:10:39.622Z,3.97
2023-04-25T17:13:30.998Z,4.10
2023-04-25T17:16:23.157Z,3.95
2023-04-25T17:19:11.042Z,5.20
2023-04-25T17:21:59.388Z,2.92
2023-04-25T17:24:48.492Z,3.92
2023-04-25T17:27:37.451Z,4.07
2023-04-25T17:30:24.902Z,4.95
2023-04-25T17:33:12.402Z,6.70
2023-04-25T17:35:59.918Z,7.20
2023-04-25T17:38:47.329Z,5.60
2023-04-25T17:41:37.634Z,4.57
2023-04-25T17:44:26.298Z,4.88
2023-04-25T17:47:14.120Z,5.38
2023-04-25T17:50:01.742Z,2.47
2023-04-25T17:52:49.320Z,3.55
2023-04-25T17:55:37.183Z,6.10
2023-04-25T17:58:26.158Z,3.05
2023-04-25T18:01:14.016Z,5.45
2023-04-25T18:04:01.811Z,3.35
2023-04-25T18:06:49.745Z,5.50
2023-04-25T18:09:37.593Z,3.22
2023-04-25T18:12:26.801Z,3.17
2023-04-25T18:15:17.057Z,4.10
2023-04-25T18:18:14.597Z,4.80
2023-04-25T18:21:05.169Z,5.05
2023-04-25T18:23:53.229Z,6.32
2023-04-25T18:26:42.066Z,3.53
2023-04-25T18:29:33.522Z,3.08
2023-04-25T18:32:23.007Z,3.25
2023-04-25T18:35:11.175Z,8.20
2023-04-25T18:37:59.068Z,6.68
2023-04-25T18:40:57.474Z,11.18
2023-04-25T18:43:47.896Z,14.30
2023-04-25T18:46:37.039Z,13.23
2023-04-25T18:49:26.361Z,13.52
2023-04-25T18:52:16.031Z,10.35
2023-04-25T18:55:03.918Z,10.43
2023-04-25T18:57:51.787Z,10.43
2023-04-25T19:00:40.113Z,10.25
2023-04-25T19:03:28.750Z,8.85
2023-04-25T19:06:18.043Z,7.47
2023-04-25T19:09:07.642Z,7.63
2023-04-25T19:11:55.411Z,8.35
2023-04-25T19:14:42.984Z,7.88
2023-04-25T19:17:30.705Z,7.97
2023-04-25T19:20:19.893Z,10.20
2023-04-25T19:23:10.465Z,7.80
2023-04-25T19:25:58.245Z,8.05
2023-04-25T19:28:45.907Z,5.57
2023-04-25T19:31:38.165Z,8.13
2023-04-25T19:34:26.041Z,7.18
2023-04-25T19:37:14.103Z,5.05
2023-04-25T19:40:04.742Z,6.72
2023-04-25T19:42:52.324Z,7.75
2023-04-25T19:45:40.280Z,7.22
2023-04-25T19:48:27.819Z,8.13
2023-04-25T19:51:15.600Z,8.10
2023-04-25T19:54:04.316Z,7.78
2023-04-25T19:56:53.238Z,6.18
2023-04-25T19:59:41.601Z,4.63
2023-04-25T20:02:29.191Z,5.68
2023-04-25T20:05:18.731Z,5.32
2023-04-25T20:08:06.547Z,6.32
2023-04-25T20:10:54.040Z,7.97
2023-04-25T20:13:42.865Z,6.95
2023-04-25T20:16:31.268Z,6.75
2023-04-25T20:19:19.021Z,6.75
2023-04-25T20:22:06.993Z,5.70
2023-04-25T20:24:57.690Z,6.05
2023-04-25T20:27:45.429Z,6.80
2023-04-25T20:30:34.447Z,8.77
2023-04-25T20:33:22.678Z,5.20
2023-04-25T20:36:10.061Z,5.80
2023-04-25T20:38:57.419Z,4.57
2023-04-25T20:41:45.756Z,5.53
2023-04-25T20:44:33.379Z,6.20
2023-04-25T20:47:22.412Z,7.63
2023-04-25T20:50:12.029Z,6.22
2023-04-25T20:52:59.815Z,4.90
2023-04-25T20:55:48.121Z,4.03
2023-04-25T20:58:35.994Z,5.90
2023-04-25T21:01:24.076Z,6.70
2023-04-25T21:04:13.377Z,5.80
2023-04-25T21:07:01.612Z,7.55
2023-04-25T21:09:49.373Z,5.85
2023-04-25T21:12:37.091Z,8.88
2023-04-25T21:15:24.992Z,7.35
2023-04-25T21:18:12.898Z,6.60
2023-04-25T21:21:03.993Z,6.35
2023-04-25T21:23:51.747Z,9.88
2023-04-25T21:26:39.430Z,4.45
2023-04-25T21:29:26.846Z,6.95
2023-04-25T21:32:17.506Z,6.45
2023-04-25T21:35:05.618Z,6.65
2023-04-25T21:37:54.620Z,5.45
2023-04-25T21:40:42.413Z,5.18
2023-04-25T21:43:29.975Z,3.97
2023-04-25T21:46:23.467Z,6.53
2023-04-25T21:49:11.471Z,6.03
2023-04-25T21:51:58.956Z,3.78
2023-04-25T21:54:47.583Z,4.80
2023-04-25T21:57:35.168Z,6.88
2023-04-25T22:00:24.687Z,6.63
2023-04-25T22:03:14.683Z,5.05
2023-04-25T22:06:03.788Z,4.53
2023-04-25T22:08:51.467Z,4.63
2023-04-25T22:11:42.949Z,5.63
2023-04-25T22:14:31.586Z,5.22
2023-04-25T22:17:19.285Z,6.35
2023-04-25T22:20:13.910Z,6.68
2023-04-25T22:23:01.919Z,4.53
2023-04-25T22:25:49.378Z,5.13
2023-04-25T22:28:39.739Z,7.35
2023-04-25T22:31:28.962Z,4.10
2023-04-25T22:34:16.721Z,4.03
2023-04-25T22:37:04.749Z,4.63
2023-04-25T22:39:52.760Z,3.90
2023-04-25T22:42:41.161Z,4.20
2023-04-25T22:45:30.000Z,4.30
2023-04-25T22:48:17.494Z,5.57
2023-04-25T22:51:06.614Z,4.95
2023-04-25T22:53:54.130Z,5.30
2023-04-25T22:56:42.154Z,4.22
2023-04-25T22:59:29.941Z,2.85
2023-04-25T23:02:18.746Z,5.75
2023-04-25T23:05:07.311Z,4.47
2023-04-25T23:07:54.711Z,7.35
2023-04-25T23:10:42.600Z,7.43
2023-04-25T23:13:31.550Z,4.30
2023-04-25T23:16:19.082Z,6.22
2023-04-25T23:19:07.980Z,4.05
2023-04-25T23:21:55.357Z,3.65
2023-04-25T23:24:42.928Z,5.25
2023-04-25T23:27:31.149Z,6.60
2023-04-25T23:30:19.172Z,4.57
2023-04-25T23:33:06.990Z,6.53
2023-04-25T23:35:56.474Z,7.15
2023-04-25T23:38:44.182Z,8.13
2023-04-25T23:41:31.498Z,5.32
2023-04-25T23:44:19.352Z,4.25
2023-04-25T23:47:06.879Z,5.80
2023-04-25T23:49:54.402Z,6.63
2023-04-25T23:52:43.391Z,5.68
2023-04-25T23:55:31.603Z,5.32
2023-04-25T23:58:19.149Z,8.10
